createdAt,value
2018-05-16T00:03:46.628Z,19.70
2018-05-16T00:08:49.988Z,18.20
2018-05-16T00:13:55.240Z,16.10
2018-05-16T00:18:58.602Z,14.77
2018-05-16T00:24:04.351Z,16.00
2018-05-16T00:29:06.920Z,15.70
2018-05-16T00:34:10.253Z,15.57
2018-05-16T00:39:12.817Z,16.03
2018-05-16T00:44:16.184Z,16.60
2018-05-16T00:49:18.841Z,15.00
2018-05-16T00:54:27.012Z,12.80
2018-05-16T00:59:29.576Z,13.27
2018-05-16T01:04:32.900Z,12.90
2018-05-16T01:09:35.460Z,12.97
2018-05-16T01:14:39.015Z,14.67
2018-05-16T01:19:41.621Z,16.37
2018-05-16T01:24:44.315Z,14.87
2018-05-16T01:29:52.461Z,15.87
2018-05-16T01:34:55.025Z,15.60
2018-05-16T01:39:58.411Z,15.30
2018-05-16T01:45:01.013Z,13.93
2018-05-16T01:50:03.583Z,12.67
2018-05-16T01:55:06.185Z,11.90
2018-05-16T02:00:08.774Z,13.17
2018-05-16T02:05:11.372Z,13.30
2018-05-16T02:10:13.953Z,13.23
2018-05-16T02:15:17.692Z,13.73
2018-05-16T02:20:20.287Z,14.33
2018-05-16T02:25:22.856Z,15.37
2018-05-16T02:30:26.400Z,14.87
2018-05-16T02:35:29.000Z,15.60
2018-05-16T02:40:31.586Z,16.07
2018-05-16T02:45:34.185Z,19.50
2018-05-16T02:50:36.764Z,14.27
2018-05-16T02:55:40.117Z,16.00
2018-05-16T03:00:42.708Z,15.53
2018-05-16T03:05:45.268Z,16.27
2018-05-16T03:10:48.598Z,16.10
2018-05-16T03:15:51.930Z,15.57
2018-05-16T03:20:55.748Z,16.70
2018-05-16T03:25:58.328Z,14.77
2018-05-16T03:31:01.670Z,14.83
2018-05-16T03:36:05.192Z,12.50
2018-05-16T03:41:07.772Z,11.30
2018-05-16T03:46:11.122Z,10.90
2018-05-16T03:51:13.719Z,9.33
2018-05-16T03:56:17.772Z,7.80
2018-05-16T04:01:32.136Z,8.40
2018-05-16T04:06:34.765Z,8.87
2018-05-16T04:11:37.340Z,8.33
2018-05-16T04:16:39.907Z,8.47
2018-05-16T04:21:42.486Z,8.10
2018-05-16T04:26:45.828Z,8.37
2018-05-16T04:31:48.392Z,9.10
2018-05-16T04:36:51.729Z,9.53
2018-05-16T04:41:54.302Z,8.93
2018-05-16T04:46:57.708Z,10.13
2018-05-16T04:52:00.270Z,9.90
2018-05-16T04:57:02.840Z,10.97
2018-05-16T05:02:05.638Z,10.37
2018-05-16T05:07:09.355Z,9.83
2018-05-16T05:12:12.523Z,9.40
2018-05-16T05:17:15.103Z,8.70
2018-05-16T05:22:17.710Z,8.10
2018-05-16T05:27:20.283Z,8.17
2018-05-16T05:32:24.843Z,8.30
2018-05-16T05:37:28.154Z,8.90
2018-05-16T05:42:30.741Z,10.03
2018-05-16T05:47:33.416Z,10.80
2018-05-16T05:52:36.783Z,9.90
2018-05-16T05:57:39.357Z,10.40
2018-05-16T06:02:41.945Z,10.83
2018-05-16T06:07:44.528Z,9.40
2018-05-16T06:12:47.860Z,11.27
2018-05-16T06:17:50.441Z,9.90
2018-05-16T06:22:53.756Z,9.60
2018-05-16T06:27:57.102Z,11.03
2018-05-16T06:32:59.680Z,11.53
2018-05-16T06:38:05.987Z,11.90
2018-05-16T06:43:08.554Z,13.77
2018-05-16T06:48:11.898Z,14.90
2018-05-16T06:53:14.462Z,17.47
2018-05-16T06:58:17.800Z,17.87
2018-05-16T07:03:20.389Z,20.00
2018-05-16T07:08:23.717Z,19.67
2018-05-16T07:13:27.501Z,20.47
2018-05-16T07:18:30.018Z,21.53
2018-05-16T07:23:33.436Z,23.07
2018-05-16T07:28:36.768Z,22.10
2018-05-16T07:33:39.355Z,21.60
2018-05-16T07:38:42.692Z,22.33
2018-05-16T07:43:45.261Z,23.27
2018-05-16T07:48:48.607Z,22.60
2018-05-16T07:53:51.175Z,21.20
2018-05-16T07:58:55.208Z,22.80
2018-05-16T08:03:59.133Z,23.27
2018-05-16T08:09:02.539Z,22.67
2018-05-16T08:14:05.131Z,23.90
2018-05-16T08:19:07.722Z,20.40
2018-05-16T08:24:12.273Z,19.97
2018-05-16T08:29:14.833Z,20.27
2018-05-16T08:34:17.409Z,19.63
2018-05-16T08:39:19.990Z,20.30
2018-05-16T08:44:23.427Z,20.20
2018-05-16T08:49:25.915Z,19.37
2018-05-16T08:54:29.304Z,20.50
2018-05-16T08:59:31.905Z,18.73
2018-05-16T09:04:35.236Z,17.13
2018-05-16T09:09:38.568Z,16.43
2018-05-16T09:14:41.150Z,15.70
2018-05-16T09:19:44.566Z,17.00
2018-05-16T09:24:48.968Z,16.77
2018-05-16T09:29:51.552Z,17.53
2018-05-16T09:34:54.512Z,16.60
2018-05-16T09:39:57.932Z,10.20
2018-05-16T09:45:01.268Z,7.03
2018-05-16T09:50:03.865Z,7.37
2018-05-16T09:55:06.421Z,7.03
2018-05-16T10:00:09.011Z,8.00
2018-05-16T10:05:11.578Z,8.60
2018-05-16T10:10:14.139Z,9.30
2018-05-16T10:15:17.482Z,9.00
2018-05-16T10:20:20.155Z,10.03
2018-05-16T10:25:22.724Z,7.53
2018-05-16T10:30:25.289Z,7.50
2018-05-16T10:35:27.883Z,7.53
2018-05-16T10:40:30.449Z,8.90
2018-05-16T10:45:33.783Z,8.50
2018-05-16T10:50:36.373Z,9.37
2018-05-16T10:55:39.276Z,8.90
2018-05-16T11:00:41.884Z,8.27
2018-05-16T11:05:44.467Z,7.77
2018-05-16T11:10:47.788Z,7.80
2018-05-16T11:15:50.354Z,7.70
2018-05-16T11:20:52.936Z,9.10
2018-05-16T11:25:58.391Z,9.90
2018-05-16T11:31:00.969Z,11.60
2018-05-16T11:36:03.556Z,14.40
2018-05-16T11:41:06.174Z,13.17
2018-05-16T11:46:08.757Z,8.10
2018-05-16T11:51:11.329Z,11.63
2018-05-16T11:56:14.751Z,12.50
2018-05-16T12:01:18.091Z,12.27
2018-05-16T12:06:20.647Z,9.07
2018-05-16T12:11:23.218Z,8.00
2018-05-16T12:16:25.849Z,8.33
2018-05-16T12:21:29.184Z,6.63
2018-05-16T12:26:31.792Z,6.10
2018-05-16T12:31:34.351Z,4.93
2018-05-16T12:36:37.964Z,3.67
2018-05-16T12:41:40.505Z,4.20
2018-05-16T12:46:43.160Z,4.60
2018-05-16T12:51:46.422Z,4.70
2018-05-16T12:56:48.992Z,5.20
2018-05-16T13:01:52.334Z,5.57
2018-05-16T13:06:54.948Z,7.13
2018-05-16T13:11:57.615Z,8.23
2018-05-16T13:17:00.941Z,7.60
2018-05-16T13:22:03.505Z,7.87
2018-05-16T13:27:06.065Z,9.40
2018-05-16T13:32:08.638Z,9.00
2018-05-16T13:37:11.220Z,9.30
2018-05-16T13:42:15.292Z,11.63
2018-05-16T13:47:17.854Z,11.87
2018-05-16T13:52:21.207Z,12.40
2018-05-16T13:57:23.780Z,11.83
2018-05-16T14:02:26.350Z,11.63
2018-05-16T14:07:29.778Z,12.20
2018-05-16T14:12:33.195Z,12.33
2018-05-16T14:17:36.522Z,12.73
2018-05-16T14:22:39.092Z,10.93
2018-05-16T14:27:41.667Z,11.97
2018-05-16T14:32:44.244Z,11.23
2018-05-16T14:37:46.813Z,11.67
2018-05-16T14:42:51.066Z,11.00
2018-05-16T14:47:54.561Z,8.70
2018-05-16T14:52:57.890Z,10.03
2018-05-16T14:58:00.456Z,8.13
2018-05-16T15:03:03.054Z,7.63
2018-05-16T15:08:05.652Z,8.10
2018-05-16T15:13:08.301Z,5.90
2018-05-16T15:18:10.787Z,6.07
2018-05-16T15:23:13.428Z,7.20
2018-05-16T15:28:16.015Z,7.43
2018-05-16T15:33:19.412Z,7.47
2018-05-16T15:38:21.990Z,7.90
2018-05-16T15:43:24.573Z,9.30
2018-05-16T15:48:27.910Z,9.10
2018-05-16T15:53:30.693Z,8.50
2018-05-16T15:58:34.078Z,9.97
2018-05-16T16:03:36.649Z,9.13
2018-05-16T16:08:39.510Z,9.97
2018-05-16T16:13:42.842Z,9.30
2018-05-16T16:18:45.405Z,10.10
2018-05-16T16:23:48.008Z,10.00
2018-05-16T16:28:50.841Z,10.43
2018-05-16T16:33:55.220Z,10.30
2018-05-16T16:38:57.869Z,8.97
2018-05-16T16:44:03.125Z,10.33
2018-05-16T16:49:06.128Z,10.90
2018-05-16T16:54:09.473Z,10.97
2018-05-16T16:59:12.045Z,12.10
2018-05-16T17:04:15.367Z,11.40
2018-05-16T17:09:19.333Z,12.20
2018-05-16T17:14:22.313Z,11.43
2018-05-16T17:19:25.654Z,11.10
2018-05-16T17:24:28.230Z,10.70
2018-05-16T17:29:31.439Z,11.20
2018-05-16T17:34:34.802Z,11.23
2018-05-16T17:39:37.384Z,11.63
2018-05-16T17:44:40.044Z,12.80
2018-05-16T17:49:42.652Z,11.80
2018-05-16T17:54:46.494Z,12.23
2018-05-16T17:59:49.057Z,11.57
2018-05-16T18:04:55.197Z,11.93
2018-05-16T18:10:00.474Z,11.80
2018-05-16T18:15:19.413Z,12.20
2018-05-16T18:20:22.053Z,11.43
2018-05-16T18:25:24.946Z,12.10
2018-05-16T18:30:27.731Z,12.93
2018-05-16T18:35:30.318Z,12.27
2018-05-16T18:40:32.917Z,12.67
2018-05-16T18:45:35.485Z,14.10
2018-05-16T18:50:39.310Z,14.77
2018-05-16T18:55:42.177Z,14.60
2018-05-16T19:00:44.804Z,13.93
2018-05-16T19:05:47.503Z,14.10
2018-05-16T19:10:50.042Z,15.13
2018-05-16T19:15:52.851Z,14.37
2018-05-16T19:20:55.437Z,15.80
2018-05-16T19:25:58.764Z,16.63
2018-05-16T19:31:02.078Z,16.40
2018-05-16T19:36:04.660Z,15.27
2018-05-16T19:41:12.049Z,16.27
2018-05-16T19:46:14.680Z,17.17
2018-05-16T19:51:17.237Z,17.67
2018-05-16T19:56:19.945Z,17.80
2018-05-16T20:01:22.543Z,17.27
2018-05-16T20:06:25.114Z,18.47
2018-05-16T20:11:28.261Z,18.20
2018-05-16T20:16:31.768Z,18.97
2018-05-16T20:21:35.245Z,19.43
2018-05-16T20:26:37.856Z,19.67
2018-05-16T20:31:41.078Z,22.17
2018-05-16T20:36:46.101Z,22.10
2018-05-16T20:41:48.664Z,23.70
2018-05-16T20:46:52.448Z,21.30
2018-05-16T20:51:55.681Z,23.37
2018-05-16T20:57:04.918Z,22.03
2018-05-16T21:02:07.513Z,22.03
2018-05-16T21:07:10.148Z,21.47
2018-05-16T21:12:14.209Z,20.50
2018-05-16T21:17:17.546Z,19.40
2018-05-16T21:22:20.472Z,20.57
2018-05-16T21:27:23.049Z,21.20
2018-05-16T21:32:25.624Z,20.23
2018-05-16T21:37:28.949Z,20.47
2018-05-16T21:42:31.524Z,21.07
2018-05-16T21:47:36.545Z,20.47
2018-05-16T21:52:39.179Z,20.30
2018-05-16T21:57:41.737Z,20.83
2018-05-16T22:02:45.814Z,20.50
2018-05-16T22:07:49.195Z,21.30
2018-05-16T22:12:52.476Z,21.40
2018-05-16T22:17:55.049Z,21.50
2018-05-16T22:22:58.373Z,23.10
2018-05-16T22:28:01.437Z,21.13
2018-05-16T22:33:14.633Z,20.43
2018-05-16T22:38:23.089Z,19.90
2018-05-16T22:43:26.506Z,20.50
2018-05-16T22:48:29.079Z,19.40
2018-05-16T22:53:32.232Z,19.97
2018-05-16T22:58:35.451Z,19.63
2018-05-16T23:03:38.027Z,19.97
2018-05-16T23:19:55.443Z,18.53
2018-05-16T23:24:58.959Z,18.83
2018-05-16T23:30:02.191Z,18.37
2018-05-16T23:35:05.196Z,18.17
2018-05-16T23:40:08.334Z,19.23
2018-05-16T23:45:10.888Z,19.50
2018-05-16T23:50:13.464Z,19.23
2018-05-16T23:55:19.296Z,19.83
